Time;durP1;ratioP1;P1;durP2;ratioP2;P2;SDS_P1;SDS_P2;PMS_P1;PMS_P2;Temp;Humidity;BMP_temperature;BMP_pressure;BME280_temperature;BME280_humidity;BME280_pressure;Samples;Min_cycle;Max_cycle;Signal;HPM_P1;HPM_P2
2022/04/11 00:02:03;;;;;;;4.00;1.52;;;2.30;99.90;;;;;;4880333;29;20055;-74
2022/04/11 00:04:29;;;;;;;6.57;1.90;;;2.30;99.90;;;;;;4897146;29;20047;-73
2022/04/11 00:06:55;;;;;;;6.68;2.05;;;2.30;99.90;;;;;;4897477;29;20084;-73
2022/04/11 00:09:21;;;;;;;7.03;2.40;;;2.30;99.90;;;;;;4897287;29;20073;-74
2022/04/11 00:11:46;;;;;;;8.15;2.35;;;2.30;99.90;;;;;;4880332;29;20052;-74
2022/04/11 00:14:13;;;;;;;8.18;2.72;;;2.30;99.90;;;;;;4880114;29;20454;-75
2022/04/11 00:16:39;;;;;;;10.35;2.60;;;2.30;99.90;;;;;;4880129;29;20132;-74
2022/04/11 00:19:05;;;;;;;7.93;2.63;;;2.30;99.90;;;;;;4880531;29;20052;-75
2022/04/11 00:21:31;;;;;;;7.88;2.55;;;2.30;99.90;;;;;;4880559;29;20120;-73
2022/04/11 00:23:57;;;;;;;8.75;3.03;;;2.20;99.90;;;;;;4882207;29;20048;-74
2022/04/11 00:26:22;;;;;;;10.20;2.85;;;2.20;99.90;;;;;;4900492;29;20056;-75
2022/04/11 00:28:48;;;;;;;7.70;2.45;;;2.20;99.90;;;;;;4900120;29;20060;-73
2022/04/11 00:31:14;;;;;;;6.45;2.65;;;2.20;99.90;;;;;;4883606;29;20060;-75
2022/04/11 00:33:39;;;;;;;7.18;2.67;;;2.20;99.90;;;;;;4900171;29;20497;-74
2022/04/11 00:36:05;;;;;;;7.28;2.58;;;2.20;99.90;;;;;;4883516;29;20059;-74
2022/04/11 00:38:31;;;;;;;9.00;2.40;;;2.20;99.90;;;;;;4900475;29;20045;-75
2022/04/11 00:40:56;;;;;;;6.53;2.55;;;2.20;99.90;;;;;;4900395;29;20057;-75
2022/04/11 00:43:33;;;;;;;7.22;2.80;;;3.30;99.90;;;;;;4883640;29;20409;-74
2022/04/11 00:45:59;;;;;;;10.55;3.42;;;2.20;99.90;;;;;;4883385;29;20064;-75
2022/04/11 00:48:25;;;;;;;8.25;2.83;;;2.10;99.90;;;;;;4882784;29;20072;-76
2022/04/11 00:50:55;;;;;;;7.18;2.72;;;2.10;99.90;;;;;;4900112;29;20053;-74
2022/04/11 00:53:21;;;;;;;7.07;2.60;;;2.10;99.90;;;;;;4883486;29;20076;-74
2022/04/11 00:55:47;;;;;;;6.43;2.53;;;2.10;99.90;;;;;;4882983;29;20464;-74
2022/04/11 00:58:13;;;;;;;9.52;2.90;;;2.00;99.90;;;;;;4883057;29;20051;-74
2022/04/11 01:00:40;;;;;;;7.68;2.33;;;2.00;99.90;;;;;;4900094;29;20052;-73
2022/04/11 01:03:05;;;;;;;7.82;2.55;;;1.90;99.90;;;;;;4899705;29;20523;-74
2022/04/11 01:05:31;;;;;;;6.32;2.50;;;1.80;99.90;;;;;;4882490;29;20089;-75
2022/04/11 01:08:07;;;;;;;8.68;3.00;;;1.80;99.90;;;;;;4882982;29;20048;-75
2022/04/11 01:10:33;;;;;;;8.90;2.85;;;1.80;99.90;;;;;;4899705;29;20053;-74
2022/04/11 01:12:59;;;;;;;9.50;3.03;;;1.70;99.90;;;;;;4882605;29;20049;-74
2022/04/11 01:15:25;;;;;;;10.10;3.05;;;1.70;99.90;;;;;;4899831;29;20548;-75
2022/04/11 01:17:51;;;;;;;8.07;2.28;;;1.70;99.90;;;;;;4882706;29;20045;-74
2022/04/11 01:20:16;;;;;;;5.47;2.50;;;1.70;99.90;;;;;;4899255;29;20053;-73
2022/04/11 01:22:43;;;;;;;11.23;2.50;;;1.60;99.90;;;;;;4882278;29;20067;-72
2022/04/11 01:25:11;;;;;;;9.27;2.78;;;1.60;99.90;;;;;;4899435;29;20049;-75
2022/04/11 01:27:37;;;;;;;7.65;2.35;;;1.60;99.90;;;;;;4882631;29;20047;-75
2022/04/11 01:30:04;;;;;;;7.95;2.70;;;1.60;99.90;;;;;;4882397;29;20060;-75
2022/04/11 01:32:30;;;;;;;9.55;2.88;;;1.50;99.90;;;;;;4899509;29;20065;-74
2022/04/11 01:34:56;;;;;;;7.07;2.92;;;1.50;99.90;;;;;;4898792;29;20052;-74
2022/04/11 01:37:22;;;;;;;10.18;2.90;;;1.50;99.90;;;;;;4898453;29;20517;-75
2022/04/11 01:39:48;;;;;;;7.35;2.67;;;1.50;99.90;;;;;;4882258;29;20064;-74
2022/04/11 01:42:14;;;;;;;6.75;2.78;;;1.50;99.90;;;;;;4882518;29;20390;-75
2022/04/11 01:44:39;;;;;;;7.57;3.00;;;1.50;99.90;;;;;;4882029;29;20047;-74
2022/04/11 01:47:05;;;;;;;9.05;2.47;;;1.50;99.90;;;;;;4899124;29;20108;-75
2022/04/11 01:49:30;;;;;;;6.40;2.53;;;1.40;99.90;;;;;;4882216;29;20497;-74
2022/04/11 01:51:56;;;;;;;7.05;2.60;;;1.40;99.90;;;;;;4881577;29;20143;-74
2022/04/11 01:54:22;;;;;;;7.82;2.53;;;1.40;99.90;;;;;;4866649;29;20100;-74
2022/04/11 01:56:47;;;;;;;5.93;2.22;;;1.30;99.90;;;;;;4882064;29;20100;-74
2022/04/11 01:59:14;;;;;;;7.40;2.20;;;1.30;99.90;;;;;;4866309;29;20088;-75
2022/04/11 02:01:40;;;;;;;6.00;2.50;;;1.30;99.90;;;;;;4866674;29;20446;-73
2022/04/11 02:04:06;;;;;;;7.72;2.45;;;1.30;99.90;;;;;;4881708;29;20112;-74
2022/04/11 02:06:32;;;;;;;9.77;3.08;;;1.30;99.90;;;;;;4898675;29;20048;-71
2022/04/11 02:08:57;;;;;;;8.10;2.42;;;1.20;99.90;;;;;;4898259;29;20115;-75
2022/04/11 02:11:23;;;;;;;7.97;2.80;;;1.40;99.90;;;;;;4898934;29;20045;-75
2022/04/11 02:13:49;;;;;;;7.57;2.95;;;1.30;99.90;;;;;;4898580;29;20049;-75
2022/04/11 02:16:14;;;;;;;8.25;2.72;;;1.30;99.90;;;;;;4898504;29;20089;-74
2022/04/11 02:18:40;;;;;;;7.53;2.65;;;1.30;99.90;;;;;;4881670;29;20048;-74
2022/04/11 02:21:05;;;;;;;6.82;2.53;;;1.30;99.90;;;;;;4881646;29;20053;-74
2022/04/11 02:23:31;;;;;;;6.88;2.60;;;1.20;99.90;;;;;;4881519;29;20470;-74
2022/04/11 02:25:57;;;;;;;8.48;3.03;;;1.20;99.90;;;;;;4881334;29;20056;-75
2022/04/11 02:28:22;;;;;;;6.68;2.05;;;1.20;99.90;;;;;;4881216;29;20088;-74
2022/04/11 02:30:48;;;;;;;7.10;2.53;;;1.20;99.90;;;;;;4898209;29;20052;-75
2022/04/11 02:33:14;;;;;;;8.15;2.60;;;1.20;99.90;;;;;;4881791;29;20041;-75
2022/04/11 02:35:41;;;;;;;9.18;2.97;;;1.10;99.90;;;;;;4898244;29;20113;-75
2022/04/11 02:38:06;;;;;;;9.93;2.45;;;1.20;99.90;;;;;;4898209;29;20060;-74
2022/04/11 02:40:32;;;;;;;7.47;2.78;;;1.20;99.90;;;;;;4897693;29;20052;-75
2022/04/11 02:42:58;;;;;;;8.10;2.92;;;1.20;99.90;;;;;;4880840;29;20104;-75
2022/04/11 02:45:24;;;;;;;7.78;2.63;;;1.20;99.90;;;;;;4897869;29;20405;-73
2022/04/11 02:47:50;;;;;;;8.75;2.42;;;1.20;99.90;;;;;;4880454;29;20131;-73
2022/04/11 02:50:16;;;;;;;6.88;2.70;;;1.20;99.90;;;;;;4898042;29;20127;-74
2022/04/11 02:52:42;;;;;;;7.38;2.75;;;1.10;99.90;;;;;;4898003;29;20044;-74
2022/04/11 02:55:08;;;;;;;7.55;2.70;;;1.10;99.90;;;;;;4897898;29;20100;-74
2022/04/11 02:57:36;;;;;;;7.15;2.40;;;1.00;99.90;;;;;;4897304;29;20063;-74
2022/04/11 03:00:05;;;;;;;8.50;2.67;;;1.00;99.90;;;;;;4880916;29;20501;-74
2022/04/11 03:02:31;;;;;;;7.60;2.75;;;1.00;99.90;;;;;;4898393;29;20523;-75
2022/04/11 03:04:56;;;;;;;7.93;2.47;;;1.00;99.90;;;;;;4897923;29;20041;-74
2022/04/11 03:07:22;;;;;;;6.57;2.50;;;0.90;99.90;;;;;;4897696;29;20044;-75
2022/04/11 03:09:48;;;;;;;7.28;2.67;;;0.90;99.90;;;;;;4897748;29;20115;-74
2022/04/11 03:12:13;;;;;;;7.13;2.42;;;0.90;99.90;;;;;;4880606;29;20535;-72
2022/04/11 03:14:39;;;;;;;8.65;2.50;;;0.80;99.90;;;;;;4897636;29;20500;-74
2022/04/11 03:17:05;;;;;;;6.65;2.33;;;0.80;99.90;;;;;;4880585;29;20055;-75
2022/04/11 03:19:31;;;;;;;8.35;2.83;;;0.80;99.90;;;;;;4880872;29;20059;-74
2022/04/11 03:21:56;;;;;;;7.75;3.08;;;0.80;99.90;;;;;;4881109;29;20148;-74
2022/04/11 03:24:22;;;;;;;8.57;3.22;;;0.80;99.90;;;;;;4880263;29;20052;-74
2022/04/11 03:26:48;;;;;;;6.65;2.30;;;1.10;99.90;;;;;;4880607;29;20049;-72
2022/04/11 03:29:13;;;;;;;6.85;2.40;;;0.70;99.90;;;;;;4896765;29;20108;-73
2022/04/11 03:31:39;;;;;;;7.72;2.30;;;0.70;99.90;;;;;;4880665;29;20059;-74
2022/04/11 03:34:05;;;;;;;8.98;2.60;;;0.70;99.90;;;;;;4897711;29;20128;-74
2022/04/11 03:36:30;;;;;;;6.97;2.63;;;0.60;99.90;;;;;;4896580;29;20397;-74
2022/04/11 03:38:56;;;;;;;6.22;2.40;;;0.60;99.90;;;;;;4897476;29;20481;-74
2022/04/11 03:41:21;;;;;;;7.10;2.38;;;0.60;99.90;;;;;;4880903;29;20056;-75
2022/04/11 03:43:47;;;;;;;7.93;2.90;;;0.60;99.90;;;;;;4880053;29;20068;-75
2022/04/11 03:46:13;;;;;;;7.30;2.70;;;0.60;99.90;;;;;;4897088;29;20048;-73
2022/04/11 03:48:38;;;;;;;8.48;3.22;;;0.60;99.90;;;;;;4897209;29;20465;-74
2022/04/11 03:51:04;;;;;;;7.40;2.75;;;0.60;99.90;;;;;;4880832;29;20135;-74
2022/04/11 03:53:29;;;;;;;11.00;3.25;;;0.60;99.90;;;;;;4880824;29;20060;-75
2022/04/11 03:55:55;;;;;;;7.80;2.92;;;0.60;99.90;;;;;;4897402;29;20048;-74
2022/04/11 03:58:21;;;;;;;8.48;3.70;;;0.60;99.90;;;;;;4881494;29;20048;-75
2022/04/11 04:00:46;;;;;;;12.02;3.80;;;0.60;99.90;;;;;;4868164;29;20056;-75
2022/04/11 04:03:14;;;;;;;10.10;3.67;;;0.60;99.90;;;;;;4884073;29;20045;-74
2022/04/11 04:05:41;;;;;;;8.35;3.30;;;0.70;99.90;;;;;;4868262;29;20044;-74
2022/04/11 04:08:08;;;;;;;7.97;3.45;;;0.70;99.90;;;;;;4883577;29;20061;-74
2022/04/11 04:10:33;;;;;;;8.07;3.13;;;0.80;99.90;;;;;;4883679;29;20060;-75
2022/04/11 04:12:59;;;;;;;8.55;3.70;;;0.80;99.90;;;;;;4900784;29;20051;-74
2022/04/11 04:15:26;;;;;;;9.45;3.65;;;0.90;99.90;;;;;;4883812;29;20052;-74
2022/04/11 04:17:52;;;;;;;10.40;3.67;;;0.90;99.90;;;;;;4868154;29;20515;-74
2022/04/11 04:20:18;;;;;;;8.43;3.22;;;0.90;99.90;;;;;;4900848;29;20112;-74
2022/04/11 04:22:44;;;;;;;9.35;3.10;;;0.90;99.90;;;;;;4900787;29;20497;-74
2022/04/11 04:25:09;;;;;;;6.75;3.00;;;1.00;99.90;;;;;;4900615;29;20470;-74
2022/04/11 04:27:35;;;;;;;6.47;2.75;;;1.00;99.90;;;;;;4883761;29;20131;-71
2022/04/11 04:30:01;;;;;;;7.90;3.20;;;1.10;99.90;;;;;;4900456;29;20054;-74
2022/04/11 04:32:27;;;;;;;9.80;3.13;;;1.10;99.90;;;;;;4899750;29;20095;-74
2022/04/11 04:34:53;;;;;;;4.28;1.88;;;1.10;99.90;;;;;;4883539;29;20053;-74
2022/04/11 04:37:19;;;;;;;5.05;1.85;;;1.20;99.90;;;;;;4900514;29;20047;-74
2022/04/11 04:39:44;;;;;;;6.45;2.08;;;1.20;99.90;;;;;;4900578;29;20040;-75
2022/04/11 04:42:10;;;;;;;7.93;2.17;;;1.20;99.90;;;;;;4883302;29;20131;-74
2022/04/11 04:44:40;;;;;;;5.25;1.92;;;1.80;99.90;;;;;;4883519;29;20045;-75
2022/04/11 04:47:06;;;;;;;7.72;2.80;;;1.30;99.90;;;;;;4900171;29;20045;-75
2022/04/11 04:49:32;;;;;;;6.10;2.38;;;1.30;99.90;;;;;;4883071;29;20044;-74
2022/04/11 04:51:59;;;;;;;5.97;1.88;;;1.40;99.90;;;;;;4867636;29;20064;-74
2022/04/11 04:54:24;;;;;;;7.60;2.30;;;1.40;99.90;;;;;;4883078;29;20044;-74
2022/04/11 04:56:50;;;;;;;8.90;3.10;;;1.40;99.90;;;;;;4883200;29;20044;-72
2022/04/11 04:59:16;;;;;;;11.00;2.83;;;1.50;99.90;;;;;;4883173;29;20053;-74
2022/04/11 05:01:41;;;;;;;8.98;2.50;;;1.50;99.90;;;;;;4899920;29;20044;-73
2022/04/11 05:04:07;;;;;;;4.95;1.92;;;1.50;99.90;;;;;;4899391;29;20082;-71
2022/04/11 05:06:33;;;;;;;8.77;2.72;;;1.60;99.90;;;;;;4883095;29;20454;-73
2022/04/11 05:08:59;;;;;;;6.30;2.30;;;1.60;99.90;;;;;;4899883;29;20052;-73
2022/04/11 05:11:25;;;;;;;4.90;1.75;;;1.60;99.90;;;;;;4899015;29;20045;-74
2022/04/11 05:13:51;;;;;;;6.57;2.35;;;1.70;99.90;;;;;;4882963;29;20053;-74
2022/04/11 05:16:18;;;;;;;7.00;2.58;;;1.70;99.90;;;;;;4899629;29;20094;-74
2022/04/11 05:18:47;;;;;;;6.95;2.47;;;1.70;99.90;;;;;;4899422;29;20131;-74
2022/04/11 05:21:13;;;;;;;8.32;2.65;;;1.80;99.90;;;;;;4899103;29;20040;-74
2022/04/11 05:23:38;;;;;;;8.23;2.40;;;1.80;99.90;;;;;;4898698;29;20136;-72
2022/04/11 05:26:07;;;;;;;6.80;2.67;;;1.80;99.90;;;;;;4882451;29;20065;-72
2022/04/11 05:28:33;;;;;;;7.32;2.67;;;1.90;99.90;;;;;;4882638;29;20417;-74
2022/04/11 05:30:58;;;;;;;11.57;2.95;;;2.00;99.90;;;;;;4899469;29;20048;-73
2022/04/11 05:33:25;;;;;;;8.85;3.70;;;2.00;99.90;;;;;;4888055;29;20556;-74
2022/04/11 05:35:51;;;;;;;8.77;2.88;;;2.10;99.90;;;;;;4908271;29;20041;-74
2022/04/11 05:38:17;;;;;;;8.80;3.53;;;2.10;99.90;;;;;;4908825;29;20497;-74
2022/04/11 05:40:43;;;;;;;8.48;3.25;;;2.20;99.90;;;;;;4909216;29;20040;-74
2022/04/11 05:43:09;;;;;;;7.72;2.83;;;2.20;99.90;;;;;;4915980;29;20118;-72
2022/04/11 05:45:37;;;;;;;8.20;3.00;;;2.30;99.90;;;;;;4901042;29;20056;-75
2022/04/11 05:48:03;;;;;;;11.88;3.17;;;2.30;99.90;;;;;;4901088;29;20044;-75
2022/04/11 05:50:29;;;;;;;7.20;2.78;;;2.30;99.90;;;;;;4917920;29;20394;-74
2022/04/11 05:52:55;;;;;;;7.40;2.72;;;2.40;99.90;;;;;;4917632;29;20044;-75
2022/04/11 05:55:20;;;;;;;6.57;2.92;;;2.40;99.90;;;;;;4917883;29;20043;-73
2022/04/11 05:57:46;;;;;;;7.47;2.97;;;2.50;99.90;;;;;;4917680;29;20047;-75
2022/04/11 06:00:12;;;;;;;9.68;3.00;;;2.60;99.90;;;;;;4917940;29;20048;-75
2022/04/11 06:02:38;;;;;;;10.32;3.33;;;2.60;99.90;;;;;;4917637;29;20052;-74
2022/04/11 06:05:04;;;;;;;11.30;3.70;;;2.70;99.90;;;;;;4900664;29;20048;-75
2022/04/11 06:07:32;;;;;;;11.60;3.42;;;2.70;99.90;;;;;;4899991;29;20064;-73
2022/04/11 06:09:59;;;;;;;7.80;3.55;;;2.70;99.90;;;;;;4900549;29;20040;-74
2022/04/11 06:12:25;;;;;;;8.45;2.97;;;2.80;99.90;;;;;;4917571;29;20121;-74
2022/04/11 06:14:53;;;;;;;8.15;3.58;;;2.90;99.90;;;;;;4917397;29;20051;-75
2022/04/11 06:17:23;;;;;;;9.68;4.40;;;3.00;99.90;;;;;;4900510;29;20047;-74
2022/04/11 06:19:50;;;;;;;11.13;5.13;;;3.00;99.90;;;;;;4900172;29;20055;-74
2022/04/11 06:22:17;;;;;;;12.60;3.95;;;3.10;99.90;;;;;;4917159;29;20055;-72
2022/04/11 06:24:43;;;;;;;7.72;3.40;;;3.10;99.90;;;;;;4916836;29;20119;-74
2022/04/11 06:27:09;;;;;;;10.55;3.65;;;3.20;99.90;;;;;;4900037;29;20052;-74
2022/04/11 06:29:34;;;;;;;8.73;3.78;;;3.30;99.90;;;;;;4900132;29;20525;-75
2022/04/11 06:32:04;;;;;;;9.88;4.43;;;3.40;99.90;;;;;;4899496;29;20063;-75
2022/04/11 06:34:32;;;;;;;8.55;3.58;;;3.60;99.90;;;;;;4900624;29;20048;-72
2022/04/11 06:36:59;;;;;;;10.40;4.68;;;3.50;99.90;;;;;;4916649;29;20052;-75
2022/04/11 06:39:25;;;;;;;9.60;4.88;;;3.60;99.90;;;;;;4892315;29;20079;-75
2022/04/11 06:41:51;;;;;;;9.77;3.15;;;3.60;99.90;;;;;;4878614;29;20084;-74
2022/04/11 06:44:17;;;;;;;9.00;3.03;;;3.80;99.90;;;;;;4895710;29;20096;-74
2022/04/11 06:46:43;;;;;;;7.68;2.58;;;3.70;99.90;;;;;;4896921;29;20131;-74
2022/04/11 06:49:08;;;;;;;7.50;2.78;;;3.70;99.90;;;;;;4897084;29;20044;-74
2022/04/11 06:51:34;;;;;;;6.68;2.60;;;3.80;99.90;;;;;;4880438;29;20131;-74
2022/04/11 06:54:00;;;;;;;12.38;3.10;;;3.90;99.90;;;;;;4880360;29;20060;-74
2022/04/11 06:56:25;;;;;;;8.50;3.30;;;3.90;99.90;;;;;;4896752;29;20044;-74
2022/04/11 06:58:51;;;;;;;8.45;2.85;;;3.90;99.90;;;;;;4879871;29;20068;-74
2022/04/11 07:01:17;;;;;;;10.35;3.30;;;4.00;99.90;;;;;;4880309;29;20084;-76
2022/04/11 07:03:42;;;;;;;10.40;3.17;;;4.10;99.90;;;;;;4880193;29;20048;-76
2022/04/11 07:06:10;;;;;;;8.68;3.22;;;4.20;99.90;;;;;;4892470;29;20049;-76
2022/04/11 07:08:36;;;;;;;10.00;3.28;;;4.30;99.90;;;;;;4894736;29;20407;-75
2022/04/11 07:11:02;;;;;;;7.85;2.70;;;4.40;99.90;;;;;;4894273;29;20056;-79
2022/04/11 07:13:28;;;;;;;7.45;2.50;;;4.40;99.90;;;;;;4876733;29;20053;-76
2022/04/11 07:15:53;;;;;;;6.57;2.80;;;4.60;99.90;;;;;;4893846;29;20063;-78
2022/04/11 07:18:19;;;;;;;9.65;2.95;;;4.50;99.90;;;;;;4894762;29;20084;-77
2022/04/11 07:20:45;;;;;;;11.48;2.55;;;4.60;99.90;;;;;;4880736;29;20061;-72
2022/04/11 07:23:11;;;;;;;8.70;3.05;;;4.70;99.90;;;;;;4878574;29;20135;-75
2022/04/11 07:25:38;;;;;;;7.78;2.72;;;5.30;99.90;;;;;;4893273;29;20135;-75
2022/04/11 07:28:05;;;;;;;8.02;3.35;;;4.80;99.90;;;;;;4893854;29;20556;-76
2022/04/11 07:30:32;;;;;;;10.90;3.47;;;4.90;99.90;;;;;;4894390;29;20074;-76
2022/04/11 07:32:57;;;;;;;10.02;3.30;;;5.00;99.90;;;;;;4896548;29;20044;-76
2022/04/11 07:35:23;;;;;;;9.70;3.42;;;5.00;99.90;;;;;;4881868;29;20134;-74
2022/04/11 07:37:49;;;;;;;8.77;3.97;;;5.10;99.90;;;;;;4901144;29;20065;-75
2022/04/11 07:40:15;;;;;;;8.80;3.10;;;5.20;99.90;;;;;;4901144;29;20041;-74
2022/04/11 07:42:41;;;;;;;8.85;3.03;;;5.20;99.90;;;;;;4897029;29;20055;-73
2022/04/11 07:45:07;;;;;;;13.60;3.80;;;5.30;99.90;;;;;;4897944;29;20060;-73
2022/04/11 07:47:33;;;;;;;9.65;3.17;;;5.40;99.90;;;;;;4899025;29;20052;-74
2022/04/11 07:49:58;;;;;;;8.27;2.63;;;5.50;99.90;;;;;;4901108;29;20056;-72
2022/04/11 07:52:25;;;;;;;8.13;2.58;;;5.60;99.90;;;;;;4908875;29;20055;-72
2022/04/11 07:54:51;;;;;;;7.68;2.45;;;5.70;99.90;;;;;;4881757;29;20052;-74
2022/04/11 07:57:17;;;;;;;5.35;2.30;;;5.80;99.90;;;;;;4883912;29;20060;-73
2022/04/11 07:59:43;;;;;;;8.43;2.50;;;6.00;99.90;;;;;;4886556;29;20061;-76
2022/04/11 08:02:08;;;;;;;6.10;2.22;;;6.10;99.90;;;;;;4902915;29;20847;-73
2022/04/11 08:04:35;;;;;;;8.38;2.63;;;6.40;99.90;;;;;;4887328;29;20112;-74
2022/04/11 08:07:03;;;;;;;7.75;2.72;;;6.30;99.90;;;;;;4883183;29;20396;-74
2022/04/11 08:09:30;;;;;;;7.80;2.58;;;6.40;99.90;;;;;;4901307;29;20508;-72
2022/04/11 08:11:55;;;;;;;6.40;2.13;;;6.50;99.90;;;;;;4900217;29;20060;-73
2022/04/11 08:14:21;;;;;;;12.15;2.80;;;6.80;99.90;;;;;;4899697;29;20041;-73
2022/04/11 08:16:47;;;;;;;6.20;2.20;;;6.80;99.90;;;;;;4899813;29;20271;-72
2022/04/11 08:19:13;;;;;;;8.05;2.08;;;6.90;99.90;;;;;;4883370;29;20501;-73
2022/04/11 08:21:39;;;;;;;11.30;2.78;;;7.00;99.90;;;;;;4883881;29;20056;-70
2022/04/11 08:24:05;;;;;;;6.65;2.15;;;7.10;99.90;;;;;;4898928;29;20048;-71
2022/04/11 08:26:31;;;;;;;7.30;2.03;;;7.20;99.90;;;;;;4900115;29;20059;-72
2022/04/11 08:28:57;;;;;;;7.72;2.05;;;7.20;99.90;;;;;;4899867;29;20060;-72
2022/04/11 08:31:23;;;;;;;5.53;1.80;;;7.40;99.90;;;;;;4883025;29;20067;-71
2022/04/11 08:33:48;;;;;;;5.40;1.75;;;7.40;99.90;;;;;;4899407;29;20044;-72
2022/04/11 08:36:14;;;;;;;8.93;3.08;;;7.60;99.90;;;;;;4898461;29;20429;-72
2022/04/11 08:38:40;;;;;;;6.93;2.42;;;7.60;99.90;;;;;;4900864;29;20476;-72
2022/04/11 08:41:12;;;;;;;7.95;2.13;;;7.60;99.90;;;;;;4900065;29;20040;-72
2022/04/11 08:43:38;;;;;;;7.78;2.05;;;7.70;99.90;;;;;;4881683;29;20068;-74
2022/04/11 08:46:06;;;;;;;7.13;2.10;;;8.10;99.90;;;;;;4897315;29;20414;-73
2022/04/11 08:48:33;;;;;;;7.13;1.95;;;7.80;99.90;;;;;;4897087;29;20101;-71
2022/04/11 08:50:59;;;;;;;6.38;1.65;;;7.80;99.90;;;;;;4897719;29;20061;-72
2022/04/11 08:53:25;;;;;;;8.20;1.83;;;7.90;99.90;;;;;;4879263;29;20048;-72
2022/04/11 08:55:51;;;;;;;6.47;2.08;;;7.90;99.90;;;;;;4897128;29;20131;-73
2022/04/11 08:58:18;;;;;;;5.53;1.90;;;8.00;99.90;;;;;;4897624;29;20097;-74
2022/04/11 09:00:45;;;;;;;8.30;1.83;;;8.70;99.90;;;;;;4879823;29;20059;-73
2022/04/11 09:03:10;;;;;;;5.18;1.80;;;8.10;99.90;;;;;;4878910;29;20472;-75
2022/04/11 09:05:36;;;;;;;7.38;2.45;;;8.40;99.90;;;;;;4896623;29;20072;-69
2022/04/11 09:08:02;;;;;;;5.72;1.63;;;8.30;99.90;;;;;;4885132;29;20713;-70
2022/04/11 09:10:32;;;;;;;6.57;2.10;;;8.50;99.90;;;;;;4880308;29;20060;-79
2022/04/11 09:12:59;;;;;;;4.43;1.80;;;8.60;99.90;;;;;;4896857;29;20056;-81
2022/04/11 09:15:26;;;;;;;6.97;2.00;;;8.70;99.90;;;;;;4895855;29;20048;-82
2022/04/11 09:17:53;;;;;;;8.57;1.80;;;8.80;99.90;;;;;;4882699;29;20108;-82
2022/04/11 09:20:21;;;;;;;7.05;2.38;;;8.90;99.90;;;;;;4906440;29;20058;-84
2022/04/11 09:22:48;;;;;;;7.32;1.90;;;9.10;99.90;;;;;;4908318;29;20095;-86
2022/04/11 09:25:16;;;;;;;6.40;1.95;;;9.50;99.90;;;;;;4898217;29;20044;-82
2022/04/11 09:27:42;;;;;;;9.15;2.17;;;9.50;99.90;;;;;;4896938;29;20123;-84
2022/04/11 09:30:22;;;;;;;6.43;2.15;;;9.60;99.90;;;;;;4880870;29;20067;-82
2022/04/11 09:32:56;;;;;;;9.45;2.10;;;9.80;99.90;;;;;;4894449;29;20565;-83
2022/04/11 09:35:23;;;;;;;8.27;1.90;;;10.70;99.90;;;;;;4894481;29;20052;-75
2022/04/11 09:38:05;;;;;;;6.88;1.77;;;10.00;99.90;;;;;;4892906;29;20489;-76
2022/04/11 09:40:34;;;;;;;5.93;1.85;;;10.60;99.90;;;;;;4896777;29;20124;-77
2022/04/11 09:43:00;;;;;;;5.55;1.90;;;10.30;99.90;;;;;;4875788;29;20386;-77
2022/04/11 09:45:26;;;;;;;11.20;1.90;;;10.50;99.90;;;;;;4894465;29;20052;-74
2022/04/11 09:48:02;;;;;;;6.97;2.00;;;10.70;99.90;;;;;;4879380;29;20044;-78
2022/04/11 09:50:30;;;;;;;4.22;1.48;;;10.70;99.90;;;;;;4879669;29;20060;-86
2022/04/11 09:53:13;;;;;;;4.07;1.40;;;11.10;99.90;;;;;;4878610;29;20501;-78
2022/04/11 09:55:39;;;;;;;4.65;1.50;;;10.80;99.90;;;;;;4895617;29;20096;-80
2022/04/11 09:58:06;;;;;;;5.25;1.63;;;10.90;99.90;;;;;;4895842;29;20053;-79
2022/04/11 10:00:34;;;;;;;5.65;1.75;;;10.90;99.90;;;;;;4882701;29;20056;-82
2022/04/11 10:03:01;;;;;;;4.88;1.48;;;10.80;99.90;;;;;;4882665;29;21140;-75
2022/04/11 10:05:28;;;;;;;4.38;1.42;;;10.80;99.90;;;;;;4899448;29;20036;-81
2022/04/11 10:07:54;;;;;;;5.95;1.90;;;10.90;99.90;;;;;;4900215;29;20036;-75
2022/04/11 10:10:24;;;;;;;7.88;1.90;;;11.00;99.90;;;;;;4889623;29;20052;-75
2022/04/11 10:12:53;;;;;;;4.28;1.27;;;11.40;99.90;;;;;;4906720;29;20055;-72
2022/04/11 10:15:20;;;;;;;3.42;1.40;;;11.30;99.90;;;;;;4894552;29;20061;-78
2022/04/11 10:17:49;;;;;;;5.25;1.58;;;11.50;99.90;;;;;;4897579;29;20116;-77
2022/04/11 10:20:26;;;;;;;5.78;1.38;;;11.60;99.90;;;;;;4895052;29;20516;-75
2022/04/11 10:23:08;;;;;;;4.43;1.73;;;11.70;96.60;;;;;;4894111;29;20044;-70
2022/04/11 10:25:43;;;;;;;4.15;1.27;;;11.70;98.80;;;;;;4894577;29;20053;-76
2022/04/11 10:28:16;;;;;;;4.32;1.30;;;11.70;97.80;;;;;;4896057;29;20143;-72
2022/04/11 10:30:43;;;;;;;4.63;1.77;;;11.80;98.60;;;;;;4885680;29;20057;-78
2022/04/11 10:33:09;;;;;;;4.55;1.30;;;11.90;94.50;;;;;;4906500;29;20532;-77
2022/04/11 10:35:44;;;;;;;5.65;1.52;;;11.80;94.90;;;;;;4902977;29;20040;-77
2022/04/11 10:38:12;;;;;;;7.18;1.60;;;12.00;93.10;;;;;;4880563;29;20056;-80
2022/04/11 10:40:48;;;;;;;2.70;1.17;;;12.10;94.70;;;;;;4897237;29;20103;-80
2022/04/11 10:43:16;;;;;;;4.05;1.20;;;12.20;90.90;;;;;;4880289;29;20051;-75
2022/04/11 10:46:04;;;;;;;3.53;1.20;;;12.30;91.70;;;;;;4897427;29;20103;-80
2022/04/11 10:48:56;;;;;;;3.03;1.33;;;12.20;92.20;;;;;;4897241;29;20053;-79
2022/04/11 10:51:22;;;;;;;4.00;1.20;;;12.30;90.70;;;;;;4897612;29;20052;-71
2022/04/11 10:54:17;;;;;;;3.45;1.27;;;12.40;93.00;;;;;;4880360;29;20820;-78
2022/04/11 10:56:55;;;;;;;4.57;1.20;;;12.40;84.90;;;;;;4879874;29;20048;-80
2022/04/11 10:59:28;;;;;;;2.53;1.20;;;12.50;82.30;;;;;;4897148;29;20048;-74
2022/04/11 11:01:58;;;;;;;3.53;1.15;;;12.50;77.50;;;;;;4880983;29;20045;-76
2022/04/11 11:04:27;;;;;;;7.78;1.48;;;12.60;87.70;;;;;;4898074;29;20055;-78
2022/04/11 11:07:25;;;;;;;3.55;1.27;;;12.80;89.70;;;;;;4897910;29;20463;-76
2022/04/11 11:09:59;;;;;;;6.68;1.40;;;12.90;80.60;;;;;;4877888;29;20045;-72
2022/04/11 11:12:25;;;;;;;5.00;1.70;;;12.90;89.00;;;;;;4879852;29;20060;-73
2022/04/11 11:14:51;;;;;;;3.45;1.40;;;12.90;82.20;;;;;;4879984;29;20052;-75
2022/04/11 11:17:16;;;;;;;6.50;1.75;;;13.00;84.40;;;;;;4895349;29;20070;-73
2022/04/11 11:20:06;;;;;;;5.45;1.83;;;13.20;85.50;;;;;;4880134;29;20508;-74
2022/04/11 11:22:53;;;;;;;5.60;1.52;;;13.10;78.10;;;;;;4896419;29;20064;-72
2022/04/11 11:25:19;;;;;;;4.10;1.50;;;13.00;81.40;;;;;;4879243;29;20049;-72
2022/04/11 11:27:45;;;;;;;5.63;1.70;;;13.00;82.50;;;;;;4896045;29;20052;-70
2022/04/11 11:30:13;;;;;;;6.57;1.70;;;12.90;82.40;;;;;;4879254;29;20060;-72
2022/04/11 11:32:40;;;;;;;6.72;1.83;;;13.10;82.80;;;;;;4896353;29;20513;-72
2022/04/11 11:35:09;;;;;;;4.30;1.60;;;13.20;81.30;;;;;;4896850;29;20044;-73
2022/04/11 11:37:35;;;;;;;4.63;1.33;;;13.20;80.60;;;;;;4896032;29;20056;-71
2022/04/11 11:40:03;;;;;;;6.20;1.63;;;13.10;81.30;;;;;;4879679;29;20059;-75
2022/04/11 11:42:35;;;;;;;5.13;1.55;;;13.10;81.80;;;;;;4902264;29;20118;-74
2022/04/11 11:45:01;;;;;;;4.38;1.77;;;13.10;79.00;;;;;;4914346;29;20404;-72
2022/04/11 11:47:28;;;;;;;5.68;2.05;;;13.20;79.90;;;;;;4898305;29;20056;-73
2022/04/11 11:50:05;;;;;;;5.22;2.00;;;13.30;80.90;;;;;;4898392;29;20044;-73
2022/04/11 11:52:31;;;;;;;5.22;1.88;;;13.30;75.80;;;;;;4914514;29;20044;-71
2022/04/11 11:54:57;;;;;;;6.10;1.80;;;13.40;79.80;;;;;;4915427;29;20044;-74
2022/04/11 11:57:29;;;;;;;7.53;1.73;;;13.50;81.50;;;;;;4882136;29;20175;-72
2022/04/11 12:00:01;;;;;;;4.60;1.80;;;13.70;80.00;;;;;;4914030;29;20512;-72
2022/04/11 12:05:20;;;;;;;5.03;1.80;;;13.70;80.90;;;;;;4898111;29;20074;-73
2022/04/11 12:07:49;;;;;;;5.00;1.60;;;13.50;73.00;;;;;;4914628;29;20131;-70
2022/04/11 12:10:16;;;;;;;4.03;1.60;;;13.60;79.20;;;;;;4898484;29;20300;-70
2022/04/11 12:12:45;;;;;;;7.80;2.22;;;13.70;79.70;;;;;;4881933;29;20078;-72
2022/04/11 12:15:10;;;;;;;7.93;2.22;;;13.60;78.60;;;;;;4915080;29;20048;-71
2022/04/11 12:17:45;;;;;;;4.75;1.92;;;13.60;79.60;;;;;;4914671;29;20072;-73
2022/04/11 12:20:15;;;;;;;6.47;2.15;;;13.60;78.80;;;;;;4899988;29;20048;-78
2022/04/11 12:23:03;;;;;;;6.45;2.35;;;13.70;79.40;;;;;;4919019;29;20134;-77
2022/04/11 12:25:31;;;;;;;6.57;1.90;;;13.60;78.50;;;;;;4885175;29;20059;-70
2022/04/11 12:28:19;;;;;;;7.57;2.10;;;13.60;76.90;;;;;;4917760;29;20077;-71
2022/04/11 12:31:03;;;;;;;6.55;1.98;;;13.60;76.70;;;;;;4909949;29;20056;-71
2022/04/11 12:33:39;;;;;;;7.18;1.75;;;13.70;73.60;;;;;;4898402;29;20037;-69
2022/04/11 12:36:09;;;;;;;9.25;2.60;;;13.80;76.30;;;;;;4897624;29;20557;-69
2022/04/11 12:38:48;;;;;;;8.13;2.17;;;13.80;76.50;;;;;;4882455;29;20044;-68
2022/04/11 12:41:33;;;;;;;8.13;2.40;;;13.80;72.00;;;;;;4881566;29;20052;-70
2022/04/11 12:44:01;;;;;;;7.70;2.35;;;13.50;72.30;;;;;;4899214;29;20060;-72
2022/04/11 12:46:27;;;;;;;6.90;2.25;;;13.50;71.40;;;;;;4899144;29;20052;-70
2022/04/11 12:49:01;;;;;;;7.03;2.28;;;13.50;73.20;;;;;;4880770;29;20055;-72
2022/04/11 12:51:28;;;;;;;8.60;2.25;;;13.60;73.30;;;;;;4882776;29;20943;-71
2022/04/11 12:54:11;;;;;;;5.30;2.05;;;13.70;73.40;;;;;;4881625;29;20040;-71
2022/04/11 12:56:38;;;;;;;5.50;2.13;;;13.80;73.00;;;;;;4881791;29;20132;-72
2022/04/11 12:59:04;;;;;;;8.38;2.30;;;13.70;73.40;;;;;;4882261;29;20049;-72